sensor_id;sensor_type;location;lat;lon;timestamp;P1;durP1;ratioP1;P2;durP2;ratioP2
5929;SDS011;2990;48.746;9.236;2022-12-29T00:02:12;69.68;;;66.75;;
5929;SDS011;2990;48.746;9.236;2022-12-29T00:04:39;70.82;;;67.82;;
5929;SDS011;2990;48.746;9.236;2022-12-29T00:07:05;72.10;;;69.07;;
5929;SDS011;2990;48.746;9.236;2022-12-29T00:09:31;77.18;;;73.93;;
5929;SDS011;2990;48.746;9.236;2022-12-29T00:11:58;80.80;;;77.35;;
5929;SDS011;2990;48.746;9.236;2022-12-29T00:14:24;89.63;;;85.68;;
5929;SDS011;2990;48.746;9.236;2022-12-29T00:17:08;79.10;;;75.75;;
5929;SDS011;2990;48.746;9.236;2022-12-29T00:19:34;77.47;;;74.22;;
5929;SDS011;2990;48.746;9.236;2022-12-29T00:22:35;71.95;;;68.90;;
5929;SDS011;2990;48.746;9.236;2022-12-29T00:25:19;76.10;;;72.88;;
5929;SDS011;2990;48.746;9.236;2022-12-29T00:28:04;77.22;;;73.95;;
5929;SDS011;2990;48.746;9.236;2022-12-29T00:30:51;77.00;;;73.72;;
5929;SDS011;2990;48.746;9.236;2022-12-29T00:33:35;68.65;;;65.75;;
5929;SDS011;2990;48.746;9.236;2022-12-29T00:36:24;79.40;;;75.93;;
5929;SDS011;2990;48.746;9.236;2022-12-29T00:38:57;83.20;;;79.72;;
5929;SDS011;2990;48.746;9.236;2022-12-29T00:41:51;75.97;;;72.60;;
5929;SDS011;2990;48.746;9.236;2022-12-29T00:44:35;69.97;;;67.03;;
5929;SDS011;2990;48.746;9.236;2022-12-29T00:47:01;92.32;;;88.43;;
5929;SDS011;2990;48.746;9.236;2022-12-29T00:49:28;102.40;;;98.03;;
5929;SDS011;2990;48.746;9.236;2022-12-29T00:52:07;105.47;;;100.93;;
5929;SDS011;2990;48.746;9.236;2022-12-29T00:54:34;117.00;;;111.95;;
5929;SDS011;2990;48.746;9.236;2022-12-29T00:57:02;116.88;;;111.82;;
5929;SDS011;2990;48.746;9.236;2022-12-29T00:59:29;137.38;;;131.35;;
5929;SDS011;2990;48.746;9.236;2022-12-29T01:01:55;127.57;;;122.05;;
5929;SDS011;2990;48.746;9.236;2022-12-29T01:04:22;142.18;;;135.98;;
5929;SDS011;2990;48.746;9.236;2022-12-29T01:06:49;137.38;;;131.32;;
5929;SDS011;2990;48.746;9.236;2022-12-29T01:09:16;143.77;;;137.45;;
5929;SDS011;2990;48.746;9.236;2022-12-29T01:12:01;118.85;;;113.68;;
5929;SDS011;2990;48.746;9.236;2022-12-29T01:14:27;142.77;;;136.40;;
5929;SDS011;2990;48.746;9.236;2022-12-29T01:16:53;115.30;;;110.30;;
5929;SDS011;2990;48.746;9.236;2022-12-29T01:19:20;119.22;;;114.05;;
5929;SDS011;2990;48.746;9.236;2022-12-29T01:21:46;125.57;;;120.07;;
5929;SDS011;2990;48.746;9.236;2022-12-29T01:24:13;124.97;;;119.50;;
5929;SDS011;2990;48.746;9.236;2022-12-29T01:26:42;125.75;;;120.28;;
5929;SDS011;2990;48.746;9.236;2022-12-29T01:29:08;128.57;;;123.00;;
5929;SDS011;2990;48.746;9.236;2022-12-29T01:31:34;113.70;;;108.75;;
5929;SDS011;2990;48.746;9.236;2022-12-29T01:34:00;127.03;;;121.22;;
5929;SDS011;2990;48.746;9.236;2022-12-29T01:36:26;119.65;;;114.45;;
5929;SDS011;2990;48.746;9.236;2022-12-29T01:38:52;121.95;;;116.65;;
5929;SDS011;2990;48.746;9.236;2022-12-29T01:41:17;126.30;;;120.82;;
5929;SDS011;2990;48.746;9.236;2022-12-29T01:43:56;127.03;;;121.53;;
5929;SDS011;2990;48.746;9.236;2022-12-29T01:46:40;106.68;;;101.97;;
5929;SDS011;2990;48.746;9.236;2022-12-29T01:51:57;109.72;;;105.00;;
5929;SDS011;2990;48.746;9.236;2022-12-29T01:54:31;107.80;;;102.45;;
5929;SDS011;2990;48.746;9.236;2022-12-29T01:57:01;119.57;;;114.38;;
5929;SDS011;2990;48.746;9.236;2022-12-29T01:59:31;119.82;;;114.65;;
5929;SDS011;2990;48.746;9.236;2022-12-29T02:02:01;117.97;;;112.82;;
5929;SDS011;2990;48.746;9.236;2022-12-29T02:04:27;131.90;;;126.20;;
5929;SDS011;2990;48.746;9.236;2022-12-29T02:06:58;108.60;;;103.88;;
5929;SDS011;2990;48.746;9.236;2022-12-29T02:09:27;116.32;;;111.25;;
5929;SDS011;2990;48.746;9.236;2022-12-29T02:11:53;105.63;;;101.10;;
5929;SDS011;2990;48.746;9.236;2022-12-29T02:14:19;114.53;;;109.53;;
5929;SDS011;2990;48.746;9.236;2022-12-29T02:19:40;112.07;;;107.20;;
5929;SDS011;2990;48.746;9.236;2022-12-29T02:25:49;104.35;;;99.85;;
5929;SDS011;2990;48.746;9.236;2022-12-29T02:31:17;116.65;;;111.63;;
5929;SDS011;2990;48.746;9.236;2022-12-29T02:34:07;99.07;;;94.80;;
5929;SDS011;2990;48.746;9.236;2022-12-29T02:36:53;102.10;;;97.72;;
5929;SDS011;2990;48.746;9.236;2022-12-29T02:50:39;112.13;;;107.32;;
5929;SDS011;2990;48.746;9.236;2022-12-29T02:53:26;108.25;;;103.57;;
5929;SDS011;2990;48.746;9.236;2022-12-29T02:56:14;114.40;;;109.40;;
5929;SDS011;2990;48.746;9.236;2022-12-29T02:58:39;114.05;;;109.03;;
5929;SDS011;2990;48.746;9.236;2022-12-29T03:07:07;101.03;;;96.65;;
5929;SDS011;2990;48.746;9.236;2022-12-29T03:10:14;105.82;;;101.25;;
5929;SDS011;2990;48.746;9.236;2022-12-29T03:13:01;112.55;;;107.70;;
5929;SDS011;2990;48.746;9.236;2022-12-29T03:15:53;99.28;;;95.05;;
5929;SDS011;2990;48.746;9.236;2022-12-29T03:18:34;112.22;;;107.38;;
5929;SDS011;2990;48.746;9.236;2022-12-29T03:23:39;101.72;;;97.38;;
5929;SDS011;2990;48.746;9.236;2022-12-29T03:26:08;119.97;;;114.75;;
5929;SDS011;2990;48.746;9.236;2022-12-29T03:28:47;115.40;;;110.43;;
5929;SDS011;2990;48.746;9.236;2022-12-29T03:31:16;111.45;;;106.68;;
5929;SDS011;2990;48.746;9.236;2022-12-29T03:33:43;107.40;;;102.75;;
5929;SDS011;2990;48.746;9.236;2022-12-29T03:36:12;111.75;;;106.82;;
5929;SDS011;2990;48.746;9.236;2022-12-29T03:38:46;122.40;;;117.07;;
5929;SDS011;2990;48.746;9.236;2022-12-29T03:41:33;104.35;;;99.90;;
5929;SDS011;2990;48.746;9.236;2022-12-29T03:43:59;100.97;;;96.63;;
5929;SDS011;2990;48.746;9.236;2022-12-29T03:46:25;111.30;;;106.47;;
5929;SDS011;2990;48.746;9.236;2022-12-29T03:48:50;113.15;;;108.22;;
5929;SDS011;2990;48.746;9.236;2022-12-29T03:51:16;119.82;;;114.68;;
5929;SDS011;2990;48.746;9.236;2022-12-29T03:53:41;119.10;;;113.93;;
5929;SDS011;2990;48.746;9.236;2022-12-29T03:56:07;116.85;;;111.75;;
5929;SDS011;2990;48.746;9.236;2022-12-29T03:58:32;106.53;;;101.97;;
5929;SDS011;2990;48.746;9.236;2022-12-29T04:00:58;115.60;;;110.55;;
5929;SDS011;2990;48.746;9.236;2022-12-29T04:03:23;129.25;;;123.57;;
5929;SDS011;2990;48.746;9.236;2022-12-29T04:05:49;128.02;;;122.50;;
5929;SDS011;2990;48.746;9.236;2022-12-29T04:08:14;124.97;;;119.63;;
5929;SDS011;2990;48.746;9.236;2022-12-29T04:10:40;123.95;;;118.50;;
5929;SDS011;2990;48.746;9.236;2022-12-29T04:13:05;109.53;;;104.72;;
5929;SDS011;2990;48.746;9.236;2022-12-29T04:15:31;112.70;;;107.82;;
5929;SDS011;2990;48.746;9.236;2022-12-29T04:17:56;125.80;;;120.30;;
5929;SDS011;2990;48.746;9.236;2022-12-29T04:20:22;118.40;;;113.28;;
5929;SDS011;2990;48.746;9.236;2022-12-29T04:23:06;117.97;;;112.85;;
5929;SDS011;2990;48.746;9.236;2022-12-29T04:25:32;122.53;;;117.13;;
5929;SDS011;2990;48.746;9.236;2022-12-29T04:27:58;126.47;;;120.97;;
5929;SDS011;2990;48.746;9.236;2022-12-29T04:30:24;119.60;;;114.45;;
5929;SDS011;2990;48.746;9.236;2022-12-29T04:32:49;126.35;;;120.80;;
5929;SDS011;2990;48.746;9.236;2022-12-29T04:35:15;116.35;;;111.32;;
5929;SDS011;2990;48.746;9.236;2022-12-29T04:37:41;128.73;;;123.13;;
5929;SDS011;2990;48.746;9.236;2022-12-29T04:40:06;127.20;;;121.57;;
5929;SDS011;2990;48.746;9.236;2022-12-29T04:42:32;133.38;;;127.60;;
5929;SDS011;2990;48.746;9.236;2022-12-29T04:44:58;146.45;;;139.85;;
5929;SDS011;2990;48.746;9.236;2022-12-29T04:47:23;157.13;;;150.13;;
5929;SDS011;2990;48.746;9.236;2022-12-29T04:49:49;173.00;;;165.20;;
5929;SDS011;2990;48.746;9.236;2022-12-29T04:52:14;166.40;;;158.95;;
5929;SDS011;2990;48.746;9.236;2022-12-29T04:54:40;145.70;;;139.20;;
5929;SDS011;2990;48.746;9.236;2022-12-29T04:57:05;174.48;;;166.65;;
5929;SDS011;2990;48.746;9.236;2022-12-29T04:59:31;164.45;;;157.10;;
5929;SDS011;2990;48.746;9.236;2022-12-29T05:01:56;148.50;;;141.80;;
5929;SDS011;2990;48.746;9.236;2022-12-29T05:04:22;160.43;;;153.18;;
5929;SDS011;2990;48.746;9.236;2022-12-29T05:06:48;150.80;;;144.00;;
5929;SDS011;2990;48.746;9.236;2022-12-29T05:09:14;166.55;;;159.02;;
5929;SDS011;2990;48.746;9.236;2022-12-29T05:11:39;184.25;;;175.88;;
5929;SDS011;2990;48.746;9.236;2022-12-29T05:14:05;153.63;;;146.73;;
5929;SDS011;2990;48.746;9.236;2022-12-29T05:16:30;172.57;;;164.77;;
5929;SDS011;2990;48.746;9.236;2022-12-29T05:18:56;170.80;;;163.02;;
5929;SDS011;2990;48.746;9.236;2022-12-29T05:21:21;171.13;;;163.38;;
5929;SDS011;2990;48.746;9.236;2022-12-29T05:23:47;164.00;;;156.57;;
5929;SDS011;2990;48.746;9.236;2022-12-29T05:26:12;174.07;;;166.23;;
5929;SDS011;2990;48.746;9.236;2022-12-29T05:28:38;164.68;;;157.38;;
5929;SDS011;2990;48.746;9.236;2022-12-29T05:31:03;159.38;;;152.23;;
5929;SDS011;2990;48.746;9.236;2022-12-29T05:33:29;188.25;;;179.75;;
5929;SDS011;2990;48.746;9.236;2022-12-29T05:35:55;179.90;;;171.68;;
5929;SDS011;2990;48.746;9.236;2022-12-29T05:38:20;171.07;;;163.27;;
5929;SDS011;2990;48.746;9.236;2022-12-29T05:40:46;184.05;;;175.68;;
5929;SDS011;2990;48.746;9.236;2022-12-29T05:43:11;160.57;;;153.40;;
5929;SDS011;2990;48.746;9.236;2022-12-29T05:45:37;165.27;;;157.85;;
5929;SDS011;2990;48.746;9.236;2022-12-29T05:48:02;157.27;;;150.23;;
5929;SDS011;2990;48.746;9.236;2022-12-29T05:50:28;165.15;;;157.68;;
5929;SDS011;2990;48.746;9.236;2022-12-29T05:52:54;170.05;;;162.38;;
5929;SDS011;2990;48.746;9.236;2022-12-29T05:55:19;163.57;;;156.27;;
5929;SDS011;2990;48.746;9.236;2022-12-29T05:57:45;167.80;;;160.27;;
5929;SDS011;2990;48.746;9.236;2022-12-29T06:00:11;172.95;;;165.15;;
5929;SDS011;2990;48.746;9.236;2022-12-29T06:02:37;163.68;;;156.35;;
5929;SDS011;2990;48.746;9.236;2022-12-29T06:05:02;170.55;;;162.95;;
5929;SDS011;2990;48.746;9.236;2022-12-29T06:07:28;174.38;;;166.45;;
5929;SDS011;2990;48.746;9.236;2022-12-29T06:09:54;156.30;;;149.43;;
5929;SDS011;2990;48.746;9.236;2022-12-29T06:12:19;133.90;;;128.00;;
5929;SDS011;2990;48.746;9.236;2022-12-29T06:14:45;143.80;;;137.35;;
5929;SDS011;2990;48.746;9.236;2022-12-29T06:17:10;153.98;;;147.13;;
5929;SDS011;2990;48.746;9.236;2022-12-29T06:19:36;150.18;;;143.60;;
5929;SDS011;2990;48.746;9.236;2022-12-29T06:22:01;153.60;;;146.77;;
5929;SDS011;2990;48.746;9.236;2022-12-29T06:24:27;147.77;;;141.20;;
5929;SDS011;2990;48.746;9.236;2022-12-29T06:26:52;153.45;;;146.55;;
5929;SDS011;2990;48.746;9.236;2022-12-29T06:29:18;142.38;;;136.15;;
5929;SDS011;2990;48.746;9.236;2022-12-29T06:31:45;127.55;;;121.97;;
5929;SDS011;2990;48.746;9.236;2022-12-29T06:34:11;136.25;;;130.30;;
5929;SDS011;2990;48.746;9.236;2022-12-29T06:36:37;121.05;;;115.80;;
5929;SDS011;2990;48.746;9.236;2022-12-29T06:39:03;138.50;;;132.40;;
5929;SDS011;2990;48.746;9.236;2022-12-29T06:41:29;124.22;;;118.85;;
5929;SDS011;2990;48.746;9.236;2022-12-29T06:43:55;105.63;;;100.97;;
5929;SDS011;2990;48.746;9.236;2022-12-29T06:46:20;120.10;;;114.88;;
5929;SDS011;2990;48.746;9.236;2022-12-29T06:48:46;112.82;;;108.00;;
5929;SDS011;2990;48.746;9.236;2022-12-29T06:51:11;130.15;;;124.45;;
5929;SDS011;2990;48.746;9.236;2022-12-29T06:53:37;139.77;;;133.68;;
5929;SDS011;2990;48.746;9.236;2022-12-29T06:56:03;130.38;;;124.68;;
5929;SDS011;2990;48.746;9.236;2022-12-29T06:58:28;124.38;;;118.97;;
5929;SDS011;2990;48.746;9.236;2022-12-29T07:00:54;128.90;;;123.25;;
5929;SDS011;2990;48.746;9.236;2022-12-29T07:03:19;113.35;;;108.47;;
5929;SDS011;2990;48.746;9.236;2022-12-29T07:05:45;123.88;;;118.53;;
5929;SDS011;2990;48.746;9.236;2022-12-29T07:08:11;117.10;;;112.05;;
5929;SDS011;2990;48.746;9.236;2022-12-29T07:10:36;128.35;;;122.68;;
5929;SDS011;2990;48.746;9.236;2022-12-29T07:13:02;112.45;;;107.57;;
5929;SDS011;2990;48.746;9.236;2022-12-29T07:15:27;113.63;;;108.75;;
5929;SDS011;2990;48.746;9.236;2022-12-29T07:17:53;144.45;;;137.98;;
5929;SDS011;2990;48.746;9.236;2022-12-29T07:20:18;116.07;;;111.05;;
5929;SDS011;2990;48.746;9.236;2022-12-29T07:22:44;120.55;;;115.38;;
5929;SDS011;2990;48.746;9.236;2022-12-29T07:25:09;113.90;;;109.00;;
5929;SDS011;2990;48.746;9.236;2022-12-29T07:27:35;129.88;;;124.18;;
5929;SDS011;2990;48.746;9.236;2022-12-29T07:30:00;125.00;;;119.63;;
5929;SDS011;2990;48.746;9.236;2022-12-29T07:32:26;124.35;;;118.95;;
5929;SDS011;2990;48.746;9.236;2022-12-29T07:34:52;130.38;;;124.65;;
5929;SDS011;2990;48.746;9.236;2022-12-29T07:37:17;114.90;;;109.90;;
5929;SDS011;2990;48.746;9.236;2022-12-29T07:39:43;130.95;;;125.25;;
5929;SDS011;2990;48.746;9.236;2022-12-29T07:42:09;128.40;;;122.80;;
5929;SDS011;2990;48.746;9.236;2022-12-29T07:44:34;137.10;;;131.10;;
5929;SDS011;2990;48.746;9.236;2022-12-29T07:47:01;139.20;;;133.05;;
5929;SDS011;2990;48.746;9.236;2022-12-29T07:49:27;138.15;;;132.13;;
5929;SDS011;2990;48.746;9.236;2022-12-29T07:51:53;123.15;;;117.82;;
5929;SDS011;2990;48.746;9.236;2022-12-29T07:54:18;130.68;;;125.00;;
5929;SDS011;2990;48.746;9.236;2022-12-29T07:56:44;133.25;;;127.47;;
5929;SDS011;2990;48.746;9.236;2022-12-29T07:59:10;134.02;;;128.20;;
5929;SDS011;2990;48.746;9.236;2022-12-29T08:01:37;139.73;;;133.60;;
5929;SDS011;2990;48.746;9.236;2022-12-29T08:04:02;142.40;;;136.05;;
5929;SDS011;2990;48.746;9.236;2022-12-29T08:06:28;128.68;;;123.00;;
5929;SDS011;2990;48.746;9.236;2022-12-29T08:08:55;136.93;;;130.88;;
5929;SDS011;2990;48.746;9.236;2022-12-29T08:11:21;146.70;;;140.27;;
5929;SDS011;2990;48.746;9.236;2022-12-29T08:13:47;131.60;;;125.82;;
5929;SDS011;2990;48.746;9.236;2022-12-29T08:16:13;146.40;;;139.75;;
5929;SDS011;2990;48.746;9.236;2022-12-29T08:18:38;146.93;;;140.48;;
5929;SDS011;2990;48.746;9.236;2022-12-29T08:21:04;145.80;;;139.32;;
5929;SDS011;2990;48.746;9.236;2022-12-29T08:23:30;134.32;;;128.43;;
5929;SDS011;2990;48.746;9.236;2022-12-29T08:26:00;151.85;;;145.15;;
5929;SDS011;2990;48.746;9.236;2022-12-29T08:28:27;142.48;;;136.23;;
5929;SDS011;2990;48.746;9.236;2022-12-29T08:30:53;137.18;;;131.10;;
5929;SDS011;2990;48.746;9.236;2022-12-29T08:33:19;146.38;;;139.75;;
5929;SDS011;2990;48.746;9.236;2022-12-29T08:35:44;151.18;;;144.48;;
5929;SDS011;2990;48.746;9.236;2022-12-29T08:38:10;152.43;;;145.68;;
5929;SDS011;2990;48.746;9.236;2022-12-29T08:40:36;154.18;;;147.35;;
5929;SDS011;2990;48.746;9.236;2022-12-29T08:43:02;147.07;;;140.57;;
5929;SDS011;2990;48.746;9.236;2022-12-29T08:45:28;155.50;;;148.57;;
5929;SDS011;2990;48.746;9.236;2022-12-29T08:47:53;146.13;;;139.68;;
5929;SDS011;2990;48.746;9.236;2022-12-29T08:50:19;157.45;;;150.48;;
5929;SDS011;2990;48.746;9.236;2022-12-29T08:52:44;146.63;;;140.18;;
5929;SDS011;2990;48.746;9.236;2022-12-29T08:55:10;160.23;;;153.07;;
5929;SDS011;2990;48.746;9.236;2022-12-29T08:57:36;144.48;;;137.98;;
5929;SDS011;2990;48.746;9.236;2022-12-29T09:00:02;150.35;;;143.68;;
5929;SDS011;2990;48.746;9.236;2022-12-29T09:02:28;148.10;;;141.55;;
5929;SDS011;2990;48.746;9.236;2022-12-29T09:04:54;150.60;;;143.98;;
5929;SDS011;2990;48.746;9.236;2022-12-29T09:07:21;143.20;;;136.98;;
5929;SDS011;2990;48.746;9.236;2022-12-29T09:09:48;139.23;;;133.10;;
5929;SDS011;2990;48.746;9.236;2022-12-29T09:12:13;124.55;;;119.13;;
5929;SDS011;2990;48.746;9.236;2022-12-29T09:14:39;147.70;;;141.18;;
5929;SDS011;2990;48.746;9.236;2022-12-29T09:17:04;143.70;;;137.38;;
5929;SDS011;2990;48.746;9.236;2022-12-29T09:19:48;132.60;;;126.82;;
5929;SDS011;2990;48.746;9.236;2022-12-29T09:22:14;128.77;;;123.18;;
5929;SDS011;2990;48.746;9.236;2022-12-29T09:24:39;155.52;;;148.50;;
5929;SDS011;2990;48.746;9.236;2022-12-29T09:27:05;127.65;;;122.07;;
5929;SDS011;2990;48.746;9.236;2022-12-29T09:29:30;141.40;;;135.18;;
5929;SDS011;2990;48.746;9.236;2022-12-29T09:31:56;140.20;;;134.07;;
5929;SDS011;2990;48.746;9.236;2022-12-29T09:34:21;122.65;;;117.28;;
5929;SDS011;2990;48.746;9.236;2022-12-29T09:36:47;117.57;;;112.50;;
5929;SDS011;2990;48.746;9.236;2022-12-29T09:39:12;154.10;;;147.38;;
5929;SDS011;2990;48.746;9.236;2022-12-29T09:44:20;160.55;;;153.30;;
5929;SDS011;2990;48.746;9.236;2022-12-29T09:46:53;189.02;;;179.93;;
5929;SDS011;2990;48.746;9.236;2022-12-29T09:51:48;144.27;;;137.88;;
5929;SDS011;2990;48.746;9.236;2022-12-29T09:54:34;147.80;;;141.20;;
5929;SDS011;2990;48.746;9.236;2022-12-29T09:57:10;140.82;;;134.63;;
5929;SDS011;2990;48.746;9.236;2022-12-29T09:59:59;123.63;;;118.22;;
5929;SDS011;2990;48.746;9.236;2022-12-29T10:02:54;111.97;;;107.25;;
5929;SDS011;2990;48.746;9.236;2022-12-29T10:08:26;95.22;;;91.18;;
5929;SDS011;2990;48.746;9.236;2022-12-29T10:11:05;115.18;;;110.15;;
5929;SDS011;2990;48.746;9.236;2022-12-29T10:13:43;98.68;;;94.43;;
5929;SDS011;2990;48.746;9.236;2022-12-29T10:16:20;122.68;;;117.40;;
5929;SDS011;2990;48.746;9.236;2022-12-29T10:24:28;108.75;;;104.10;;
5929;SDS011;2990;48.746;9.236;2022-12-29T10:26:55;127.88;;;122.32;;
5929;SDS011;2990;48.746;9.236;2022-12-29T10:29:34;145.95;;;139.52;;
5929;SDS011;2990;48.746;9.236;2022-12-29T10:34:36;145.00;;;138.57;;
5929;SDS011;2990;48.746;9.236;2022-12-29T10:37:05;170.15;;;162.32;;
5929;SDS011;2990;48.746;9.236;2022-12-29T10:39:46;158.68;;;151.50;;
5929;SDS011;2990;48.746;9.236;2022-12-29T10:42:20;160.63;;;153.40;;
5929;SDS011;2990;48.746;9.236;2022-12-29T10:44:58;164.20;;;156.82;;
5929;SDS011;2990;48.746;9.236;2022-12-29T10:47:25;145.18;;;138.60;;
5929;SDS011;2990;48.746;9.236;2022-12-29T10:49:54;195.23;;;186.15;;
5929;SDS011;2990;48.746;9.236;2022-12-29T10:52:23;218.48;;;208.23;;
5929;SDS011;2990;48.746;9.236;2022-12-29T10:54:58;236.55;;;225.18;;
5929;SDS011;2990;48.746;9.236;2022-12-29T10:57:33;202.43;;;193.00;;
5929;SDS011;2990;48.746;9.236;2022-12-29T11:00:13;192.20;;;183.35;;
5929;SDS011;2990;48.746;9.236;2022-12-29T11:05:34;195.77;;;186.65;;
5929;SDS011;2990;48.746;9.236;2022-12-29T11:08:17;192.05;;;183.15;;
5929;SDS011;2990;48.746;9.236;2022-12-29T11:10:46;198.52;;;189.38;;
5929;SDS011;2990;48.746;9.236;2022-12-29T11:13:29;174.10;;;166.18;;
5929;SDS011;2990;48.746;9.236;2022-12-29T11:15:56;184.38;;;176.02;;
5929;SDS011;2990;48.746;9.236;2022-12-29T11:20:48;153.98;;;147.13;;
5929;SDS011;2990;48.746;9.236;2022-12-29T11:26:07;126.53;;;121.03;;
5929;SDS011;2990;48.746;9.236;2022-12-29T11:28:38;290.35;;;274.92;;
5929;SDS011;2990;48.746;9.236;2022-12-29T11:31:08;209.70;;;197.45;;
5929;SDS011;2990;48.746;9.236;2022-12-29T11:33:35;183.05;;;173.07;;
5929;SDS011;2990;48.746;9.236;2022-12-29T11:36:12;135.90;;;129.85;;
5929;SDS011;2990;48.746;9.236;2022-12-29T11:38:42;148.65;;;141.80;;
5929;SDS011;2990;48.746;9.236;2022-12-29T11:41:13;219.18;;;208.45;;
5929;SDS011;2990;48.746;9.236;2022-12-29T11:47:36;204.82;;;195.10;;
5929;SDS011;2990;48.746;9.236;2022-12-29T11:50:04;220.57;;;210.00;;
5929;SDS011;2990;48.746;9.236;2022-12-29T11:52:34;253.88;;;241.52;;
5929;SDS011;2990;48.746;9.236;2022-12-29T11:55:04;263.35;;;249.82;;
5929;SDS011;2990;48.746;9.236;2022-12-29T11:57:38;242.93;;;231.23;;
5929;SDS011;2990;48.746;9.236;2022-12-29T12:00:14;243.75;;;232.18;;
5929;SDS011;2990;48.746;9.236;2022-12-29T12:05:28;207.88;;;198.13;;
5929;SDS011;2990;48.746;9.236;2022-12-29T14:13:20;317.30;;;301.23;;
5929;SDS011;2990;48.746;9.236;2022-12-29T14:15:51;318.88;;;302.70;;
5929;SDS011;2990;48.746;9.236;2022-12-29T14:18:27;294.15;;;279.40;;
5929;SDS011;2990;48.746;9.236;2022-12-29T14:23:48;375.58;;;355.45;;
5929;SDS011;2990;48.746;9.236;2022-12-29T14:28:56;421.17;;;397.85;;
5929;SDS011;2990;48.746;9.236;2022-12-29T14:31:40;411.38;;;388.55;;
5929;SDS011;2990;48.746;9.236;2022-12-29T14:36:39;473.23;;;445.63;;
5929;SDS011;2990;48.746;9.236;2022-12-29T14:39:26;419.48;;;396.27;;
5929;SDS011;2990;48.746;9.236;2022-12-29T14:44:45;461.55;;;435.67;;
5929;SDS011;2990;48.746;9.236;2022-12-29T14:47:26;436.75;;;412.13;;
5929;SDS011;2990;48.746;9.236;2022-12-29T14:49:56;426.13;;;402.70;;
5929;SDS011;2990;48.746;9.236;2022-12-29T14:57:40;405.00;;;382.85;;
5929;SDS011;2990;48.746;9.236;2022-12-29T15:00:16;419.33;;;395.98;;
5929;SDS011;2990;48.746;9.236;2022-12-29T15:02:46;385.92;;;364.73;;
5929;SDS011;2990;48.746;9.236;2022-12-29T15:05:27;420.25;;;397.25;;
5929;SDS011;2990;48.746;9.236;2022-12-29T15:07:57;411.35;;;388.55;;
5929;SDS011;2990;48.746;9.236;2022-12-29T15:10:25;366.90;;;347.05;;
5929;SDS011;2990;48.746;9.236;2022-12-29T15:13:00;405.25;;;383.08;;
5929;SDS011;2990;48.746;9.236;2022-12-29T15:15:29;417.95;;;394.85;;
5929;SDS011;2990;48.746;9.236;2022-12-29T15:18:13;368.55;;;348.77;;
5929;SDS011;2990;48.746;9.236;2022-12-29T15:20:49;386.63;;;365.60;;
5929;SDS011;2990;48.746;9.236;2022-12-29T15:23:16;390.85;;;369.70;;
5929;SDS011;2990;48.746;9.236;2022-12-29T15:26:01;400.13;;;378.38;;
5929;SDS011;2990;48.746;9.236;2022-12-29T15:28:37;368.77;;;348.95;;
5929;SDS011;2990;48.746;9.236;2022-12-29T15:31:05;367.52;;;348.23;;
5929;SDS011;2990;48.746;9.236;2022-12-29T15:33:37;371.52;;;352.00;;
5929;SDS011;2990;48.746;9.236;2022-12-29T15:36:09;360.35;;;341.23;;
5929;SDS011;2990;48.746;9.236;2022-12-29T15:38:54;365.90;;;346.42;;
5929;SDS011;2990;48.746;9.236;2022-12-29T15:41:24;385.13;;;364.75;;
5929;SDS011;2990;48.746;9.236;2022-12-29T15:44:40;321.63;;;305.25;;
5929;SDS011;2990;48.746;9.236;2022-12-29T15:47:20;325.52;;;308.77;;
5929;SDS011;2990;48.746;9.236;2022-12-29T15:49:48;332.08;;;314.80;;
5929;SDS011;2990;48.746;9.236;2022-12-29T15:52:19;350.17;;;332.10;;
5929;SDS011;2990;48.746;9.236;2022-12-29T15:54:47;379.30;;;358.88;;
5929;SDS011;2990;48.746;9.236;2022-12-29T15:57:21;336.83;;;319.00;;
5929;SDS011;2990;48.746;9.236;2022-12-29T15:59:49;341.33;;;323.52;;
5929;SDS011;2990;48.746;9.236;2022-12-29T16:02:15;371.23;;;351.60;;
5929;SDS011;2990;48.746;9.236;2022-12-29T16:04:41;359.77;;;340.67;;
5929;SDS011;2990;48.746;9.236;2022-12-29T16:07:24;391.08;;;369.77;;
5929;SDS011;2990;48.746;9.236;2022-12-29T16:09:53;365.25;;;345.67;;
5929;SDS011;2990;48.746;9.236;2022-12-29T16:12:20;339.38;;;321.50;;
5929;SDS011;2990;48.746;9.236;2022-12-29T16:14:50;415.77;;;392.73;;
5929;SDS011;2990;48.746;9.236;2022-12-29T16:17:21;418.17;;;395.17;;
5929;SDS011;2990;48.746;9.236;2022-12-29T16:19:54;392.70;;;371.60;;
5929;SDS011;2990;48.746;9.236;2022-12-29T16:22:39;325.30;;;308.23;;
5929;SDS011;2990;48.746;9.236;2022-12-29T16:28:22;275.08;;;261.75;;
5929;SDS011;2990;48.746;9.236;2022-12-29T16:30:58;248.15;;;236.40;;
5929;SDS011;2990;48.746;9.236;2022-12-29T16:36:02;238.93;;;227.82;;
5929;SDS011;2990;48.746;9.236;2022-12-29T16:38:46;184.85;;;176.57;;
5929;SDS011;2990;48.746;9.236;2022-12-29T16:41:12;217.13;;;207.18;;
5929;SDS011;2990;48.746;9.236;2022-12-29T16:44:16;188.52;;;179.95;;
5929;SDS011;2990;48.746;9.236;2022-12-29T16:47:16;159.52;;;152.50;;
5929;SDS011;2990;48.746;9.236;2022-12-29T16:49:37;169.93;;;162.38;;
5929;SDS011;2990;48.746;9.236;2022-12-29T17:03:18;171.68;;;164.05;;
5929;SDS011;2990;48.746;9.236;2022-12-29T17:05:53;190.68;;;182.00;;
5929;SDS011;2990;48.746;9.236;2022-12-29T17:13:52;239.70;;;228.45;;
5929;SDS011;2990;48.746;9.236;2022-12-29T17:16:17;292.42;;;278.10;;
5929;SDS011;2990;48.746;9.236;2022-12-29T17:18:43;248.15;;;236.43;;
5929;SDS011;2990;48.746;9.236;2022-12-29T17:24:44;160.63;;;153.43;;
5929;SDS011;2990;48.746;9.236;2022-12-29T17:27:17;185.70;;;177.15;;
5929;SDS011;2990;48.746;9.236;2022-12-29T17:46:21;145.82;;;139.48;;
5929;SDS011;2990;48.746;9.236;2022-12-29T18:03:51;149.85;;;143.38;;
5929;SDS011;2990;48.746;9.236;2022-12-29T18:06:38;155.88;;;148.98;;
5929;SDS011;2990;48.746;9.236;2022-12-29T18:09:21;188.00;;;179.45;;
5929;SDS011;2990;48.746;9.236;2022-12-29T18:12:47;138.32;;;132.27;;
5929;SDS011;2990;48.746;9.236;2022-12-29T18:18:34;163.18;;;156.00;;
5929;SDS011;2990;48.746;9.236;2022-12-29T18:21:05;175.05;;;167.32;;
5929;SDS011;2990;48.746;9.236;2022-12-29T18:23:38;194.63;;;185.65;;
5929;SDS011;2990;48.746;9.236;2022-12-29T18:26:20;173.70;;;166.00;;
5929;SDS011;2990;48.746;9.236;2022-12-29T18:28:53;226.70;;;215.88;;
5929;SDS011;2990;48.746;9.236;2022-12-29T18:31:21;271.15;;;257.80;;
5929;SDS011;2990;48.746;9.236;2022-12-29T18:33:48;359.08;;;340.25;;
5929;SDS011;2990;48.746;9.236;2022-12-29T18:36:15;396.58;;;375.10;;
5929;SDS011;2990;48.746;9.236;2022-12-29T18:38:42;456.63;;;430.80;;
5929;SDS011;2990;48.746;9.236;2022-12-29T18:41:12;473.40;;;446.75;;
5929;SDS011;2990;48.746;9.236;2022-12-29T18:43:44;487.10;;;459.63;;
5929;SDS011;2990;48.746;9.236;2022-12-29T18:46:11;456.13;;;430.58;;
5929;SDS011;2990;48.746;9.236;2022-12-29T18:48:50;431.10;;;406.98;;
5929;SDS011;2990;48.746;9.236;2022-12-29T18:51:20;461.48;;;435.77;;
5929;SDS011;2990;48.746;9.236;2022-12-29T18:53:48;442.60;;;418.15;;
5929;SDS011;2990;48.746;9.236;2022-12-29T18:56:13;490.45;;;462.70;;
5929;SDS011;2990;48.746;9.236;2022-12-29T18:58:39;442.48;;;417.90;;
5929;SDS011;2990;48.746;9.236;2022-12-29T19:01:06;470.88;;;444.20;;
5929;SDS011;2990;48.746;9.236;2022-12-29T19:03:42;449.27;;;423.95;;
5929;SDS011;2990;48.746;9.236;2022-12-29T19:06:07;425.17;;;402.08;;
5929;SDS011;2990;48.746;9.236;2022-12-29T19:08:33;477.60;;;450.80;;